Time;durP1;ratioP1;P1;durP2;ratioP2;P2;SDS_P1;SDS_P2;PMS_P1;PMS_P2;Temp;Humidity;BMP_temperature;BMP_pressure;BME280_temperature;BME280_humidity;BME280_pressure;Samples;Min_cycle;Max_cycle;Signal;HPM_P1;HPM_P2
2022/08/24 00:00:16;;;;;;;28.85;26.08;;;20.30;99.90;;;;;;5033637;28;20045;-73
2022/08/24 00:02:42;;;;;;;22.33;20.05;;;20.20;99.90;;;;;;5048042;28;20080;-73
2022/08/24 00:05:08;;;;;;;21.70;19.50;;;20.30;99.90;;;;;;5056229;28;20050;-76
2022/08/24 00:07:35;;;;;;;34.72;31.42;;;20.30;99.90;;;;;;5055846;28;20375;-74
2022/08/24 00:10:03;;;;;;;25.08;22.77;;;20.30;99.90;;;;;;5019312;28;20120;-73
2022/08/24 00:12:30;;;;;;;34.53;31.23;;;20.30;99.90;;;;;;5027898;28;20052;-74
2022/08/24 00:14:55;;;;;;;35.50;32.25;;;20.30;99.90;;;;;;5056286;28;20044;-73
2022/08/24 00:17:21;;;;;;;33.83;30.52;;;20.30;99.90;;;;;;5056258;28;20063;-73
2022/08/24 00:19:47;;;;;;;30.67;27.92;;;20.30;99.90;;;;;;5039518;28;20535;-73
2022/08/24 00:22:13;;;;;;;28.75;25.92;;;20.30;99.90;;;;;;5050289;28;20110;-73
2022/08/24 00:24:39;;;;;;;24.90;22.33;;;20.20;99.90;;;;;;5035963;28;20128;-73
2022/08/24 00:27:06;;;;;;;25.35;23.02;;;20.20;99.90;;;;;;5055725;28;20127;-73
2022/08/24 00:29:32;;;;;;;38.00;34.55;;;20.20;99.90;;;;;;5036015;28;20052;-73
2022/08/24 00:31:58;;;;;;;28.75;25.92;;;20.20;99.90;;;;;;5050284;28;20472;-73
2022/08/24 00:34:26;;;;;;;25.00;22.60;;;20.20;99.90;;;;;;5039469;28;20044;-73
2022/08/24 00:36:52;;;;;;;36.03;32.78;;;20.10;99.90;;;;;;5031258;28;20041;-75
2022/08/24 00:39:18;;;;;;;23.95;21.65;;;20.10;99.90;;;;;;5049286;28;20048;-73
2022/08/24 00:41:47;;;;;;;24.20;21.90;;;20.10;99.90;;;;;;5054808;28;20040;-73
2022/08/24 00:44:14;;;;;;;20.30;18.40;;;20.10;99.90;;;;;;5055895;28;20071;-73
2022/08/24 00:46:51;;;;;;;21.77;19.67;;;20.10;99.90;;;;;;5037895;28;20044;-72
2022/08/24 00:49:28;;;;;;;26.75;24.25;;;20.10;99.90;;;;;;5043803;28;20068;-73
2022/08/24 00:52:23;;;;;;;37.08;33.55;;;20.10;99.90;;;;;;5054215;28;20051;-74
2022/08/24 00:54:57;;;;;;;44.13;40.13;;;20.10;99.90;;;;;;5057864;28;20525;-74
2022/08/24 00:57:27;;;;;;;27.88;25.25;;;20.00;99.90;;;;;;5072154;28;20041;-73
2022/08/24 00:59:58;;;;;;;31.25;28.35;;;19.90;99.90;;;;;;5035921;28;20047;-73
2022/08/24 01:02:32;;;;;;;25.60;23.35;;;19.90;99.90;;;;;;5045862;28;20102;-72
2022/08/24 01:05:03;;;;;;;39.08;35.47;;;19.90;99.90;;;;;;5047971;28;20049;-72
2022/08/24 01:07:31;;;;;;;26.85;24.35;;;19.90;99.90;;;;;;5043551;28;20056;-73
2022/08/24 01:10:00;;;;;;;25.88;23.48;;;19.80;99.90;;;;;;5038533;28;20044;-73
2022/08/24 01:12:29;;;;;;;32.50;29.55;;;19.80;99.90;;;;;;5057860;28;20036;-73
2022/08/24 01:14:56;;;;;;;27.08;24.67;;;19.80;99.90;;;;;;5054996;28;20555;-74
2022/08/24 01:20:09;;;;;;;24.20;21.90;;;19.80;99.90;;;;;;5043099;28;20056;-77
2022/08/24 01:22:40;;;;;;;37.33;33.92;;;19.80;99.90;;;;;;5054018;28;20041;-73
2022/08/24 01:25:07;;;;;;;20.45;18.52;;;19.80;99.90;;;;;;5072679;28;20040;-75
2022/08/24 01:27:34;;;;;;;24.02;21.80;;;19.80;99.90;;;;;;5071557;28;20028;-73
2022/08/24 01:30:03;;;;;;;24.63;22.35;;;19.80;99.90;;;;;;5044384;28;20052;-74
2022/08/24 01:32:29;;;;;;;27.67;25.17;;;19.70;99.90;;;;;;5051415;28;20044;-73
2022/08/24 01:34:55;;;;;;;23.65;21.45;;;19.70;99.90;;;;;;5044019;28;20123;-73
2022/08/24 01:37:21;;;;;;;23.98;21.67;;;19.60;99.90;;;;;;5023592;28;20041;-73
2022/08/24 01:39:49;;;;;;;25.98;23.48;;;19.60;99.90;;;;;;5051906;28;20047;-75
2022/08/24 01:42:15;;;;;;;24.00;21.73;;;19.60;99.90;;;;;;5037965;28;20052;-72
2022/08/24 01:44:43;;;;;;;40.50;36.78;;;19.60;99.90;;;;;;5038589;28;20426;-72
2022/08/24 01:47:11;;;;;;;43.50;39.42;;;19.50;99.90;;;;;;5071735;28;20051;-72
2022/08/24 01:49:41;;;;;;;37.97;34.38;;;19.40;99.90;;;;;;5055249;28;20098;-72
2022/08/24 01:52:08;;;;;;;42.15;38.17;;;19.30;99.90;;;;;;5021255;28;20049;-73
2022/08/24 01:54:34;;;;;;;49.65;44.88;;;19.30;99.90;;;;;;5049470;28;20052;-72
2022/08/24 01:57:01;;;;;;;30.35;27.45;;;19.20;99.90;;;;;;5038502;28;20090;-73
2022/08/24 01:59:27;;;;;;;29.17;26.48;;;19.00;99.90;;;;;;5057478;28;20372;-72
2022/08/24 02:02:00;;;;;;;28.15;25.55;;;19.00;99.90;;;;;;5040812;28;20464;-73
2022/08/24 02:04:26;;;;;;;27.83;25.33;;;19.00;99.90;;;;;;5037500;28;20076;-73
2022/08/24 02:06:53;;;;;;;28.67;26.00;;;19.00;99.90;;;;;;5047581;28;20065;-76
2022/08/24 02:09:18;;;;;;;27.20;24.60;;;19.10;99.90;;;;;;5040699;28;20131;-74
2022/08/24 02:11:46;;;;;;;27.42;24.80;;;19.10;99.90;;;;;;5022409;28;20116;-73
2022/08/24 02:14:12;;;;;;;38.03;34.58;;;19.10;99.90;;;;;;5040079;28;20043;-73
2022/08/24 02:16:38;;;;;;;58.05;52.53;;;19.10;99.90;;;;;;5054304;28;20141;-73
2022/08/24 02:19:05;;;;;;;32.30;29.42;;;19.00;99.90;;;;;;5051811;28;20040;-72
2022/08/24 02:21:31;;;;;;;33.58;30.58;;;18.90;99.90;;;;;;5042237;28;20041;-73
2022/08/24 02:23:56;;;;;;;38.78;35.17;;;18.90;99.90;;;;;;5054241;28;20065;-73
2022/08/24 02:26:22;;;;;;;34.22;31.23;;;18.90;99.90;;;;;;5055473;28;20083;-73
2022/08/24 02:28:48;;;;;;;30.58;27.88;;;18.80;99.90;;;;;;5046497;28;20375;-73
2022/08/24 02:31:14;;;;;;;28.23;25.58;;;18.80;99.90;;;;;;5061073;28;20048;-73
2022/08/24 02:33:40;;;;;;;30.88;28.17;;;18.80;99.90;;;;;;5040869;28;20040;-72
2022/08/24 02:36:07;;;;;;;32.38;29.52;;;18.90;99.90;;;;;;5056382;28;20048;-73
2022/08/24 02:38:34;;;;;;;32.80;29.80;;;18.80;99.90;;;;;;5041958;28;20041;-73
2022/08/24 02:41:00;;;;;;;28.25;25.73;;;18.80;99.90;;;;;;5048950;28;20388;-73
2022/08/24 02:43:26;;;;;;;26.80;24.30;;;18.80;99.90;;;;;;5033919;28;20047;-72
2022/08/24 02:45:52;;;;;;;25.55;23.13;;;18.80;99.90;;;;;;5066516;28;20040;-72
2022/08/24 02:48:18;;;;;;;24.75;22.45;;;18.80;99.90;;;;;;5055582;28;20051;-72
2022/08/24 02:50:46;;;;;;;23.88;21.67;;;18.80;99.90;;;;;;5047374;28;20033;-72
2022/08/24 02:53:14;;;;;;;24.70;22.50;;;18.80;99.90;;;;;;5040020;28;20040;-72
2022/08/24 02:55:41;;;;;;;24.00;21.77;;;18.80;99.90;;;;;;5044115;28;20810;-73
2022/08/24 02:58:09;;;;;;;25.48;23.17;;;18.80;99.90;;;;;;5037348;28;20567;-73
2022/08/24 03:00:37;;;;;;;27.85;25.23;;;18.70;99.90;;;;;;5041491;28;20052;-72
2022/08/24 03:03:03;;;;;;;24.52;22.23;;;18.70;99.90;;;;;;5043593;28;20206;-71
2022/08/24 03:05:29;;;;;;;31.90;28.90;;;18.70;99.90;;;;;;5036505;28;20393;-72
2022/08/24 03:07:56;;;;;;;23.63;21.42;;;18.70;99.90;;;;;;5064178;28;20459;-72
2022/08/24 03:10:22;;;;;;;25.98;23.58;;;18.60;99.90;;;;;;5020722;28;20119;-71
2022/08/24 03:12:49;;;;;;;25.27;22.98;;;18.60;99.90;;;;;;5044666;28;20100;-73
2022/08/24 03:15:16;;;;;;;24.80;22.40;;;18.60;99.90;;;;;;5040075;28;20044;-71
2022/08/24 03:17:42;;;;;;;27.35;24.85;;;18.60;99.90;;;;;;5039808;28;20376;-73
2022/08/24 03:20:13;;;;;;;26.27;23.85;;;18.60;99.90;;;;;;5053032;28;20417;-75
2022/08/24 03:22:39;;;;;;;24.55;22.25;;;18.60;99.90;;;;;;5054781;28;20036;-73
2022/08/24 03:25:05;;;;;;;24.88;22.38;;;18.60;99.90;;;;;;5051398;28;20045;-72
2022/08/24 03:27:31;;;;;;;26.55;24.02;;;18.60;99.90;;;;;;5036752;28;20048;-72
2022/08/24 03:29:57;;;;;;;27.52;24.98;;;18.60;99.90;;;;;;5037156;28;20360;-72
2022/08/24 03:32:23;;;;;;;28.83;26.15;;;18.50;99.90;;;;;;5050307;28;20518;-72
2022/08/24 03:34:48;;;;;;;27.67;25.23;;;18.50;99.90;;;;;;5039096;28;20040;-73
2022/08/24 03:37:15;;;;;;;26.35;23.88;;;18.50;99.90;;;;;;5069738;28;20391;-72
2022/08/24 03:39:40;;;;;;;24.27;22.17;;;18.50;99.90;;;;;;5074011;28;20340;-72
2022/08/24 03:42:06;;;;;;;24.48;22.27;;;18.50;99.90;;;;;;5054935;28;20162;-72
2022/08/24 03:44:32;;;;;;;28.85;26.10;;;18.50;99.90;;;;;;5049258;28;20036;-73
2022/08/24 03:46:58;;;;;;;26.17;23.80;;;18.40;99.90;;;;;;5051021;28;20137;-72
2022/08/24 03:49:24;;;;;;;34.05;31.15;;;18.50;99.90;;;;;;5036397;28;20049;-72
2022/08/24 03:51:50;;;;;;;38.40;34.88;;;18.50;99.90;;;;;;5046252;28;20047;-75
2022/08/24 03:54:16;;;;;;;26.35;24.00;;;18.40;99.90;;;;;;5039202;28;20093;-72
2022/08/24 03:56:42;;;;;;;24.00;21.85;;;18.40;99.90;;;;;;5047461;28;20178;-72
2022/08/24 03:59:09;;;;;;;23.23;21.13;;;18.40;99.90;;;;;;5070402;28;20123;-72
2022/08/24 04:01:36;;;;;;;24.83;22.55;;;18.30;99.90;;;;;;5056580;28;20059;-72
2022/08/24 04:04:03;;;;;;;24.10;21.83;;;18.30;99.90;;;;;;5043958;28;20055;-72
2022/08/24 04:06:28;;;;;;;23.27;21.17;;;18.40;99.90;;;;;;5048674;28;20482;-72
2022/08/24 04:08:55;;;;;;;24.08;21.83;;;18.40;99.90;;;;;;5050358;28;20068;-73
2022/08/24 04:11:26;;;;;;;24.42;22.23;;;18.40;99.90;;;;;;5039505;28;20045;-73
2022/08/24 04:13:57;;;;;;;23.95;21.75;;;18.30;99.90;;;;;;5054062;28;20064;-72
2022/08/24 04:16:23;;;;;;;24.92;22.67;;;18.30;99.90;;;;;;5055545;28;20048;-73
2022/08/24 04:18:49;;;;;;;25.05;22.85;;;18.30;99.90;;;;;;5038733;28;20718;-72
2022/08/24 04:21:30;;;;;;;37.25;33.83;;;18.30;99.90;;;;;;5019199;28;20045;-73
2022/08/24 04:23:57;;;;;;;33.20;30.15;;;18.20;99.90;;;;;;5038242;28;20505;-73
2022/08/24 04:26:25;;;;;;;23.52;21.42;;;18.20;99.90;;;;;;5055779;28;20051;-73
2022/08/24 04:28:51;;;;;;;26.48;24.13;;;18.10;99.90;;;;;;5040566;28;20097;-73
2022/08/24 04:31:17;;;;;;;25.23;22.92;;;18.10;99.90;;;;;;5037399;28;20059;-72
2022/08/24 04:33:46;;;;;;;25.55;23.15;;;18.10;99.90;;;;;;5046089;28;20482;-73
2022/08/24 04:36:12;;;;;;;25.88;23.58;;;18.00;99.90;;;;;;5034953;28;20049;-73
2022/08/24 04:38:38;;;;;;;24.42;22.17;;;18.00;99.90;;;;;;5035273;28;20041;-73
2022/08/24 04:41:13;;;;;;;22.38;20.38;;;18.00;99.90;;;;;;5052865;28;20364;-72
2022/08/24 04:43:43;;;;;;;22.23;20.23;;;18.00;99.90;;;;;;5071417;28;20123;-74
2022/08/24 04:46:11;;;;;;;28.20;25.60;;;18.00;99.90;;;;;;5072431;28;20107;-73
2022/08/24 04:48:36;;;;;;;22.67;20.52;;;18.00;99.90;;;;;;5055217;28;20117;-72
2022/08/24 04:51:05;;;;;;;22.80;20.67;;;18.00;99.90;;;;;;5054254;28;20460;-72
2022/08/24 04:53:32;;;;;;;20.77;18.88;;;18.00;99.90;;;;;;5051883;28;20044;-72
2022/08/24 04:55:59;;;;;;;21.35;19.42;;;18.00;99.90;;;;;;5019689;28;20109;-72
2022/08/24 04:58:26;;;;;;;20.40;18.52;;;18.00;99.90;;;;;;5071498;28;20043;-73
2022/08/24 05:00:52;;;;;;;26.92;24.50;;;18.00;99.90;;;;;;5048317;28;20043;-73
2022/08/24 05:03:18;;;;;;;36.42;33.08;;;18.00;99.90;;;;;;5048988;28;20383;-72
2022/08/24 05:05:45;;;;;;;36.55;33.13;;;18.00;99.90;;;;;;5059810;28;20029;-73
2022/08/24 05:08:12;;;;;;;34.60;31.33;;;18.00;99.90;;;;;;5041846;28;20047;-73
2022/08/24 05:10:39;;;;;;;38.75;35.15;;;17.90;99.90;;;;;;5050042;28;20480;-74
2022/08/24 05:13:06;;;;;;;36.88;33.38;;;17.90;99.90;;;;;;5045664;28;20120;-72
2022/08/24 05:15:32;;;;;;;40.35;36.58;;;17.90;99.90;;;;;;5063646;28;20066;-72
2022/08/24 05:17:59;;;;;;;43.30;39.22;;;17.90;99.90;;;;;;5068621;28;20048;-72
2022/08/24 05:20:25;;;;;;;47.38;42.83;;;17.90;99.90;;;;;;5070478;28;20049;-75
2022/08/24 05:22:52;;;;;;;44.58;40.15;;;17.90;99.90;;;;;;5046756;28;20057;-76
2022/08/24 05:25:18;;;;;;;46.10;41.80;;;17.90;99.90;;;;;;5039670;28;20059;-72
2022/08/24 05:27:44;;;;;;;45.80;41.30;;;17.90;99.90;;;;;;5051482;28;20063;-72
2022/08/24 05:30:10;;;;;;;50.72;45.83;;;17.90;99.90;;;;;;5066354;28;20090;-73
2022/08/24 05:32:37;;;;;;;54.95;49.55;;;17.90;99.90;;;;;;5070227;28;20048;-72
2022/08/24 05:35:04;;;;;;;55.25;50.00;;;17.90;99.90;;;;;;5066767;28;20040;-72
2022/08/24 05:37:33;;;;;;;57.67;51.92;;;17.90;99.90;;;;;;5068053;28;20460;-72
2022/08/24 05:40:01;;;;;;;51.47;46.55;;;17.90;99.90;;;;;;5068800;28;20079;-73
2022/08/24 05:42:26;;;;;;;54.92;49.67;;;17.90;99.90;;;;;;5058877;28;20046;-73
2022/08/24 05:44:52;;;;;;;51.30;46.47;;;18.00;99.90;;;;;;5073118;28;20035;-73
2022/08/24 05:47:18;;;;;;;50.15;45.60;;;18.00;99.90;;;;;;5090854;28;20048;-73
2022/08/24 05:49:44;;;;;;;53.00;47.90;;;18.00;99.90;;;;;;5057443;28;20038;-72
2022/08/24 05:52:10;;;;;;;54.25;49.10;;;18.10;99.90;;;;;;5046421;28;20416;-73
2022/08/24 05:54:36;;;;;;;55.08;49.92;;;18.20;99.90;;;;;;5063478;28;20087;-72
2022/08/24 05:57:03;;;;;;;51.45;46.63;;;18.20;99.90;;;;;;5060642;28;20090;-72
2022/08/24 05:59:30;;;;;;;59.97;54.33;;;18.30;99.90;;;;;;5053238;28;20044;-73
2022/08/24 06:01:55;;;;;;;61.65;55.72;;;18.50;99.90;;;;;;5073680;28;20039;-73
2022/08/24 06:04:21;;;;;;;63.63;57.55;;;18.80;99.90;;;;;;5062880;28;20427;-73
2022/08/24 06:06:48;;;;;;;60.85;55.13;;;19.30;99.90;;;;;;5059882;28;20406;-72
2022/08/24 06:09:15;;;;;;;60.05;54.42;;;20.30;99.90;;;;;;5067390;28;20516;-72
2022/08/24 06:11:40;;;;;;;58.58;53.05;;;20.60;99.90;;;;;;5060239;28;20044;-73
2022/08/24 06:14:15;;;;;;;55.22;50.03;;;21.60;99.90;;;;;;5079864;28;20478;-73
2022/08/24 06:16:44;;;;;;;52.47;47.38;;;22.50;99.90;;;;;;5067087;28;20094;-74
2022/08/24 06:19:12;;;;;;;49.05;44.05;;;23.10;99.90;;;;;;5053304;28;20052;-74
2022/08/24 06:21:38;;;;;;;45.90;41.72;;;23.80;99.90;;;;;;5073785;28;20093;-73
2022/08/24 06:24:05;;;;;;;46.95;42.40;;;24.50;99.90;;;;;;5071491;28;20049;-73
2022/08/24 06:29:16;;;;;;;44.42;40.22;;;25.50;99.90;;;;;;5014355;28;20074;-73
2022/08/24 06:31:44;;;;;;;44.47;40.33;;;26.00;99.90;;;;;;5067548;28;20566;-72
2022/08/24 06:34:12;;;;;;;52.33;47.35;;;26.00;99.90;;;;;;5056648;28;20088;-73
2022/08/24 06:36:38;;;;;;;43.92;39.72;;;25.90;99.90;;;;;;5071174;28;20044;-73
2022/08/24 06:39:04;;;;;;;51.03;46.28;;;26.20;99.90;;;;;;5069507;28;20464;-72
2022/08/24 06:41:30;;;;;;;43.05;38.92;;;25.90;99.90;;;;;;5072576;28;20052;-74
2022/08/24 06:43:57;;;;;;;44.05;39.72;;;26.20;99.90;;;;;;5070760;28;20040;-73
2022/08/24 06:46:22;;;;;;;42.38;38.20;;;26.50;99.90;;;;;;5067577;28;20068;-74
2022/08/24 06:48:50;;;;;;;41.95;37.95;;;26.60;99.90;;;;;;5075309;28;20145;-73
2022/08/24 06:51:18;;;;;;;41.00;37.00;;;27.40;99.90;;;;;;5069030;28;20036;-75
2022/08/24 06:53:44;;;;;;;42.30;38.13;;;27.60;99.90;;;;;;5055670;28;20059;-73
2022/08/24 06:56:11;;;;;;;41.67;37.67;;;27.90;99.90;;;;;;5059976;28;20048;-73
2022/08/24 06:58:37;;;;;;;39.95;36.28;;;28.00;99.90;;;;;;5073687;28;20547;-73
2022/08/24 07:01:13;;;;;;;40.38;36.53;;;28.10;99.90;;;;;;5055149;28;20532;-73
2022/08/24 07:03:39;;;;;;;37.80;34.22;;;28.20;99.90;;;;;;5064953;28;20052;-72
2022/08/24 07:06:06;;;;;;;39.33;35.50;;;28.50;99.90;;;;;;5074360;28;20044;-74
2022/08/24 07:08:32;;;;;;;36.50;33.00;;;28.70;99.60;;;;;;5067450;28;20392;-78
2022/08/24 07:10:57;;;;;;;36.47;32.88;;;28.50;98.80;;;;;;5071390;28;20379;-75
2022/08/24 07:13:24;;;;;;;38.55;34.90;;;28.80;97.80;;;;;;5071315;28;20471;-80
2022/08/24 07:15:51;;;;;;;34.42;31.10;;;29.00;97.70;;;;;;5052298;28;20041;-76
2022/08/24 07:18:19;;;;;;;30.75;27.60;;;29.40;96.60;;;;;;5063509;28;20049;-74
2022/08/24 07:20:45;;;;;;;31.33;28.02;;;29.60;94.80;;;;;;5052326;28;20029;-74
2022/08/24 07:23:13;;;;;;;26.90;24.25;;;30.00;93.00;;;;;;5054119;28;20124;-76
2022/08/24 07:25:43;;;;;;;27.00;23.33;;;30.20;91.70;;;;;;5069580;28;20040;-76
2022/08/24 07:28:09;;;;;;;27.30;24.70;;;30.40;90.10;;;;;;5071481;28;20056;-76
2022/08/24 07:30:35;;;;;;;25.52;22.92;;;30.60;87.90;;;;;;5071334;28;20040;-75
2022/08/24 07:33:01;;;;;;;26.15;23.65;;;30.80;87.40;;;;;;5073729;28;20059;-73
2022/08/24 07:35:28;;;;;;;24.55;21.98;;;30.80;86.70;;;;;;5070639;28;20139;-75
2022/08/24 07:37:55;;;;;;;20.38;18.40;;;29.90;86.70;;;;;;5054467;28;20483;-74
2022/08/24 07:40:26;;;;;;;19.33;17.42;;;30.40;84.40;;;;;;5056815;28;20530;-74
2022/08/24 07:42:53;;;;;;;17.63;15.73;;;30.70;82.20;;;;;;5067448;28;20083;-74
2022/08/24 07:45:21;;;;;;;16.23;13.23;;;31.00;82.60;;;;;;5070332;28;20052;-73
2022/08/24 07:47:47;;;;;;;15.25;13.65;;;30.60;78.10;;;;;;5051192;28;20037;-74
2022/08/24 07:50:14;;;;;;;16.17;14.52;;;31.20;81.40;;;;;;5071629;28;20456;-75
2022/08/24 07:52:40;;;;;;;18.80;14.63;;;31.00;80.30;;;;;;5072497;28;20467;-74
2022/08/24 07:55:06;;;;;;;14.82;11.85;;;30.90;79.40;;;;;;5073053;28;20115;-75
2022/08/24 07:57:32;;;;;;;16.98;14.73;;;30.90;77.60;;;;;;5070203;28;20052;-76
2022/08/24 07:59:58;;;;;;;15.73;13.48;;;30.70;77.70;;;;;;5069981;28;20111;-73
2022/08/24 08:02:25;;;;;;;17.63;15.77;;;30.30;76.20;;;;;;5062715;28;20586;-73
2022/08/24 08:04:53;;;;;;;14.82;13.13;;;30.30;75.30;;;;;;5060500;28;20078;-75
2022/08/24 08:07:18;;;;;;;13.70;10.32;;;30.50;74.90;;;;;;5072266;28;20049;-75
2022/08/24 08:09:45;;;;;;;15.43;13.82;;;30.20;72.30;;;;;;5081358;28;20070;-75
2022/08/24 08:12:11;;;;;;;20.77;17.40;;;29.90;73.60;;;;;;5052443;28;20128;-75
2022/08/24 08:14:37;;;;;;;12.02;9.00;;;29.40;75.50;;;;;;5052911;28;20052;-74
2022/08/24 08:17:03;;;;;;;12.73;9.32;;;29.40;76.80;;;;;;5050760;28;20380;-74
2022/08/24 08:19:29;;;;;;;14.38;9.30;;;29.50;75.60;;;;;;5056095;28;20055;-74
2022/08/24 08:24:42;;;;;;;14.30;9.93;;;29.60;73.10;;;;;;5053937;28;20555;-75
2022/08/24 08:27:09;;;;;;;14.75;11.82;;;29.30;73.50;;;;;;5053986;28;20060;-74
2022/08/24 08:29:39;;;;;;;13.73;10.60;;;29.50;74.90;;;;;;5085610;28;20503;-74
2022/08/24 08:32:06;;;;;;;12.55;9.40;;;29.10;76.20;;;;;;5058709;28;20480;-72
2022/08/24 08:34:32;;;;;;;12.50;9.00;;;29.50;75.60;;;;;;5019578;28;20140;-73
2022/08/24 08:36:58;;;;;;;14.52;9.63;;;29.80;75.50;;;;;;5051763;28;20056;-73
2022/08/24 08:39:25;;;;;;;12.18;8.52;;;30.00;74.70;;;;;;5036660;28;20040;-73
2022/08/24 08:42:27;;;;;;;13.55;9.88;;;30.20;75.60;;;;;;5062691;28;20053;-73
2022/08/24 08:45:09;;;;;;;14.75;10.10;;;30.40;75.90;;;;;;5079310;28;20043;-73
2022/08/24 08:47:59;;;;;;;14.38;10.27;;;30.40;74.70;;;;;;5075653;28;20042;-74
2022/08/24 08:50:43;;;;;;;17.03;11.57;;;30.40;73.90;;;;;;5073254;28;20079;-73
2022/08/24 08:53:40;;;;;;;16.63;12.13;;;30.00;73.90;;;;;;5066955;28;20045;-73
2022/08/24 08:56:33;;;;;;;15.55;10.50;;;30.00;76.10;;;;;;5053631;28;20115;-72
2022/08/24 08:59:35;;;;;;;13.52;10.35;;;30.10;76.60;;;;;;5070956;28;20055;-73
2022/08/24 09:02:16;;;;;;;15.32;10.85;;;29.90;74.80;;;;;;5061039;28;20039;-73
2022/08/24 09:05:36;;;;;;;12.82;10.57;;;29.90;75.80;;;;;;5055608;28;20488;-73
2022/08/24 09:08:17;;;;;;;12.93;9.80;;;30.10;74.70;;;;;;5063755;28;20101;-72
2022/08/24 09:11:01;;;;;;;13.02;8.73;;;30.00;75.20;;;;;;5051469;28;20053;-73
2022/08/24 09:13:28;;;;;;;12.57;9.70;;;30.20;77.10;;;;;;5034670;28;20041;-73
2022/08/24 09:16:26;;;;;;;12.10;8.88;;;30.30;74.50;;;;;;5052246;28;20071;-74
2022/08/24 09:19:16;;;;;;;12.00;8.18;;;30.30;74.00;;;;;;5036343;28;20044;-72
2022/08/24 09:21:57;;;;;;;12.32;8.30;;;30.40;73.80;;;;;;5064088;28;20048;-73
2022/08/24 09:24:28;;;;;;;11.63;7.28;;;30.60;73.20;;;;;;5059549;28;20045;-73
2022/08/24 09:27:27;;;;;;;12.20;7.32;;;30.80;73.30;;;;;;5059760;28;20059;-72
2022/08/24 09:30:22;;;;;;;12.38;8.15;;;31.10;71.40;;;;;;5061570;28;20400;-74
2022/08/24 09:32:57;;;;;;;12.07;8.40;;;31.40;74.40;;;;;;5062937;28;20071;-73
2022/08/24 09:35:35;;;;;;;9.65;6.85;;;31.40;70.00;;;;;;5078481;28;20052;-74
2022/08/24 09:38:34;;;;;;;12.27;7.03;;;31.30;70.90;;;;;;5071497;28;20036;-73
2022/08/24 09:41:38;;;;;;;11.70;6.07;;;31.20;71.20;;;;;;5072822;28;20115;-71
2022/08/24 09:44:29;;;;;;;12.48;6.38;;;31.30;72.40;;;;;;5085407;28;20054;-72
2022/08/24 09:47:20;;;;;;;11.88;8.25;;;31.60;70.00;;;;;;5055223;28;20048;-73
2022/08/24 09:50:12;;;;;;;10.30;7.00;;;31.70;66.90;;;;;;5055073;28;20037;-72
2022/08/24 09:53:13;;;;;;;11.70;7.28;;;31.60;68.40;;;;;;5084825;28;20059;-72
2022/08/24 09:55:51;;;;;;;12.23;6.85;;;31.50;68.80;;;;;;5082933;28;20114;-74
2022/08/24 09:58:41;;;;;;;10.63;6.90;;;31.70;68.70;;;;;;5072006;28;20048;-74
2022/08/24 10:01:21;;;;;;;9.57;6.33;;;31.80;68.30;;;;;;5071898;28;20288;-73
2022/08/24 10:04:25;;;;;;;11.15;5.70;;;31.90;67.80;;;;;;5072224;28;20762;-73
2022/08/24 10:07:13;;;;;;;9.15;6.78;;;32.10;68.90;;;;;;5053765;28;20053;-75
2022/08/24 10:09:42;;;;;;;11.07;6.22;;;32.00;65.00;;;;;;5060947;28;20049;-73
2022/08/24 10:12:19;;;;;;;10.35;7.43;;;31.90;67.40;;;;;;5067393;28;20766;-71
2022/08/24 10:15:08;;;;;;;10.73;6.40;;;31.60;65.30;;;;;;5060676;28;20052;-73
2022/08/24 10:18:07;;;;;;;7.97;5.63;;;31.80;66.40;;;;;;5065049;28;20127;-74
2022/08/24 10:21:08;;;;;;;9.55;6.53;;;31.90;68.20;;;;;;5062130;28;20041;-74
2022/08/24 10:24:00;;;;;;;10.25;5.30;;;32.00;66.30;;;;;;5071433;28;20032;-72
2022/08/24 10:26:32;;;;;;;10.65;6.30;;;32.00;67.40;;;;;;5068109;28;20044;-72
2022/08/24 10:29:21;;;;;;;10.00;5.70;;;31.90;66.30;;;;;;5074642;28;20070;-73
2022/08/24 10:32:15;;;;;;;9.45;4.88;;;31.70;66.20;;;;;;5074445;28;20387;-76
2022/08/24 10:34:43;;;;;;;9.30;5.68;;;31.60;66.60;;;;;;5065617;28;20041;-75
2022/08/24 10:37:20;;;;;;;9.52;5.82;;;31.60;66.30;;;;;;5064082;28;20581;-73
2022/08/24 10:39:50;;;;;;;9.82;4.85;;;31.20;66.00;;;;;;5079015;28;20040;-73
2022/08/24 10:45:53;;;;;;;9.68;5.10;;;31.20;67.50;;;;;;5071244;28;20054;-72
2022/08/24 10:48:41;;;;;;;7.88;4.10;;;31.50;65.60;;;;;;5074716;28;20431;-74
2022/08/24 10:51:10;;;;;;;5.35;2.70;;;31.70;63.80;;;;;;5063369;28;20108;-73
2022/08/24 10:53:36;;;;;;;7.38;4.20;;;31.80;63.10;;;;;;5057439;28;20041;-74
2022/08/24 10:56:11;;;;;;;9.35;3.63;;;31.50;63.20;;;;;;5074368;28;20052;-73
2022/08/24 10:58:55;;;;;;;7.90;3.80;;;31.50;64.00;;;;;;5045792;28;20041;-72
2022/08/24 11:01:23;;;;;;;6.63;3.08;;;31.50;61.90;;;;;;5060420;28;20060;-73
2022/08/24 11:03:49;;;;;;;7.03;2.70;;;31.80;64.00;;;;;;5061250;28;20052;-72
2022/08/24 11:06:17;;;;;;;6.32;3.10;;;32.00;62.50;;;;;;5066321;28;20036;-74
2022/08/24 11:08:59;;;;;;;7.45;3.47;;;31.90;61.10;;;;;;5070208;28;20045;-73
2022/08/24 11:11:29;;;;;;;8.48;3.88;;;31.50;63.20;;;;;;5065055;28;20070;-74
2022/08/24 11:14:00;;;;;;;7.88;2.90;;;31.00;63.60;;;;;;5059967;28;20042;-75
2022/08/24 11:16:29;;;;;;;4.70;2.10;;;30.90;65.80;;;;;;5074433;28;20044;-72
2022/08/24 11:18:57;;;;;;;4.45;1.52;;;31.00;65.50;;;;;;5073992;28;20136;-72
2022/08/24 11:21:40;;;;;;;3.88;1.75;;;31.30;64.10;;;;;;5073570;28;20044;-73
2022/08/24 11:24:38;;;;;;;4.65;1.77;;;31.40;61.30;;;;;;5054572;28;20368;-71
2022/08/24 11:27:18;;;;;;;5.22;1.80;;;31.60;63.20;;;;;;5051167;28;20500;-72
2022/08/24 11:29:50;;;;;;;4.35;1.50;;;31.50;60.50;;;;;;5054162;28;20055;-74
2022/08/24 11:32:42;;;;;;;5.78;1.65;;;31.70;61.60;;;;;;5054290;28;20495;-73
2022/08/24 11:35:20;;;;;;;3.78;1.50;;;31.90;62.10;;;;;;5073202;28;20090;-76
2022/08/24 11:37:47;;;;;;;5.00;1.50;;;32.20;60.00;;;;;;5072799;28;20059;-73
2022/08/24 11:40:15;;;;;;;5.88;1.80;;;32.00;59.50;;;;;;5056761;28;20563;-72
2022/08/24 11:43:00;;;;;;;5.10;1.70;;;31.90;59.60;;;;;;5073346;28;20530;-74
2022/08/24 11:46:05;;;;;;;3.65;1.40;;;32.00;59.60;;;;;;5061971;28;20048;-71
2022/08/24 11:48:59;;;;;;;4.70;1.40;;;32.10;59.90;;;;;;5041717;28;20070;-74
2022/08/24 11:51:59;;;;;;;5.03;1.52;;;32.20;58.40;;;;;;5052461;28;20041;-72
2022/08/24 11:54:41;;;;;;;5.28;1.83;;;32.20;59.00;;;;;;5054819;28;20055;-71
2022/08/24 11:57:14;;;;;;;4.40;1.63;;;32.30;59.20;;;;;;5073366;28;20067;-72
2022/08/24 11:59:58;;;;;;;5.10;1.67;;;32.50;58.50;;;;;;5054759;28;20056;-74
2022/08/24 12:02:34;;;;;;;4.70;2.17;;;32.70;58.50;;;;;;5057919;28;20041;-72
2022/08/24 12:05:25;;;;;;;4.03;1.65;;;32.70;58.50;;;;;;5059894;28;20040;-73
2022/08/24 12:08:12;;;;;;;7.45;2.10;;;32.80;58.60;;;;;;5069166;28;20048;-75
2022/08/24 12:10:52;;;;;;;5.70;2.00;;;32.80;58.50;;;;;;5070861;28;20127;-74
2022/08/24 12:13:51;;;;;;;4.97;1.90;;;32.90;57.60;;;;;;5069760;28;20058;-74
2022/08/24 12:16:34;;;;;;;6.40;1.80;;;32.70;56.10;;;;;;5070711;28;20560;-74
2022/08/24 12:19:20;;;;;;;4.75;1.60;;;32.70;58.20;;;;;;5069767;28;20040;-74
2022/08/24 12:21:51;;;;;;;4.55;1.80;;;32.70;57.10;;;;;;5069779;28;20055;-74
2022/08/24 12:24:25;;;;;;;3.95;1.45;;;32.80;57.80;;;;;;5054413;28;20040;-72
2022/08/24 12:26:59;;;;;;;3.65;1.50;;;32.80;56.20;;;;;;5069995;28;20395;-73
2022/08/24 12:29:41;;;;;;;4.55;1.60;;;32.80;56.20;;;;;;5074867;28;20060;-74
2022/08/24 12:32:16;;;;;;;4.07;1.50;;;32.50;56.20;;;;;;5071237;28;20036;-74
2022/08/24 12:34:57;;;;;;;4.43;1.70;;;32.20;56.40;;;;;;5070767;28;20475;-73
2022/08/24 12:37:50;;;;;;;5.00;1.50;;;32.30;57.10;;;;;;5069133;28;20048;-73
2022/08/24 12:40:29;;;;;;;3.90;1.40;;;32.40;56.80;;;;;;5067862;28;20047;-72
2022/08/24 12:43:04;;;;;;;3.88;1.55;;;32.60;55.10;;;;;;5054177;28;20746;-74
2022/08/24 12:45:30;;;;;;;7.00;1.50;;;32.60;53.90;;;;;;5049339;28;20044;-71
2022/08/24 12:48:20;;;;;;;3.55;1.30;;;32.40;55.00;;;;;;5061798;28;20588;-72
2022/08/24 12:51:21;;;;;;;3.87;1.53;;;32.20;55.50;;;;;;5062088;28;20033;-72
2022/08/24 12:54:06;;;;;;;3.83;1.55;;;32.20;55.60;;;;;;5047724;28;20307;-72
2022/08/24 12:57:02;;;;;;;4.88;1.67;;;32.30;55.80;;;;;;5063733;28;20467;-72
2022/08/24 12:59:39;;;;;;;3.95;1.30;;;32.20;55.10;;;;;;5067500;28;20033;-71
2022/08/24 13:02:10;;;;;;;7.00;1.60;;;32.20;54.40;;;;;;5068583;28;20041;-72
2022/08/24 13:04:42;;;;;;;3.08;1.20;;;32.20;54.70;;;;;;5069030;28;20044;-71
2022/08/24 13:07:24;;;;;;;4.00;1.48;;;32.20;53.10;;;;;;5068339;28;20379;-73
2022/08/24 13:09:59;;;;;;;3.15;1.20;;;32.30;55.10;;;;;;5069812;28;20503;-73